createdAt,value
2022-12-15T00:01:19.103Z,-7.05
2022-12-15T00:04:03.841Z,-7.06
2022-12-15T00:06:48.777Z,-7.07
2022-12-15T00:09:33.583Z,-7.05
2022-12-15T00:12:18.399Z,-7.05
2022-12-15T00:15:03.209Z,-7.08
2022-12-15T00:17:47.960Z,-7.08
2022-12-15T00:20:32.800Z,-7.10
2022-12-15T00:23:24.683Z,-7.10
2022-12-15T00:26:09.419Z,-7.09
2022-12-15T00:28:55.923Z,-7.10
2022-12-15T00:31:50.035Z,-7.07
2022-12-15T00:34:34.877Z,-7.11
2022-12-15T00:37:19.758Z,-7.10
2022-12-15T00:39:46.064Z,-7.13
2022-12-15T00:42:12.358Z,-7.15
2022-12-15T00:44:38.647Z,-7.17
2022-12-15T00:47:05.059Z,-7.17
2022-12-15T00:49:50.446Z,-7.19
2022-12-15T00:52:36.400Z,-7.21
2022-12-15T00:55:22.215Z,-7.21
2022-12-15T00:58:07.087Z,-7.24
2022-12-15T01:00:52.360Z,-7.26
2022-12-15T01:03:41.895Z,-7.29
2022-12-15T01:06:28.201Z,-7.32
2022-12-15T01:09:12.884Z,-7.37
2022-12-15T01:11:58.284Z,-7.43
2022-12-15T01:14:43.164Z,-7.41
2022-12-15T01:17:28.032Z,-7.36
2022-12-15T01:20:12.841Z,-7.32
2022-12-15T01:22:39.320Z,-7.31
2022-12-15T01:25:06.913Z,-7.25
2022-12-15T01:27:33.156Z,-7.22
2022-12-15T01:29:59.408Z,-7.14
2022-12-15T01:32:25.793Z,-7.06
2022-12-15T01:34:52.069Z,-7.00
2022-12-15T01:37:18.365Z,-7.03
2022-12-15T01:40:03.307Z,-7.07
2022-12-15T01:42:29.865Z,-7.11
2022-12-15T01:45:14.992Z,-7.14
2022-12-15T01:47:41.350Z,-7.11
2022-12-15T01:50:09.453Z,-7.10
2022-12-15T01:52:35.752Z,-7.06
2022-12-15T01:55:02.010Z,-7.00
2022-12-15T01:57:31.083Z,-6.96
2022-12-15T01:59:59.405Z,-6.94
2022-12-15T02:02:28.179Z,-6.91
2022-12-15T02:04:56.598Z,-6.89
2022-12-15T02:07:23.350Z,-6.88
2022-12-15T02:09:51.719Z,-6.86
2022-12-15T02:12:23.858Z,-6.87
2022-12-15T02:14:58.782Z,-6.88
2022-12-15T02:17:30.894Z,-6.92
2022-12-15T02:19:59.876Z,-6.92
2022-12-15T02:22:41.129Z,-6.95
2022-12-15T02:25:27.684Z,-6.95
2022-12-15T02:27:56.863Z,-6.95
2022-12-15T02:30:29.296Z,-6.96
2022-12-15T02:33:14.960Z,-6.99
2022-12-15T02:35:44.295Z,-7.02
2022-12-15T02:38:10.560Z,-7.05
2022-12-15T02:40:37.113Z,-7.09
2022-12-15T02:43:05.538Z,-7.13
2022-12-15T02:45:42.865Z,-7.16
2022-12-15T02:48:23.881Z,-7.19
2022-12-15T02:50:52.975Z,-7.19
2022-12-15T02:53:22.245Z,-7.18
2022-12-15T02:56:02.509Z,-7.17
2022-12-15T02:58:36.244Z,-7.19
2022-12-15T03:01:05.870Z,-7.22
2022-12-15T03:03:33.444Z,-7.21
2022-12-15T03:06:02.118Z,-7.18
2022-12-15T03:08:28.726Z,-7.13
2022-12-15T03:10:56.407Z,-7.06
2022-12-15T03:13:23.033Z,-7.02
2022-12-15T03:15:49.284Z,-6.94
2022-12-15T03:18:15.628Z,-6.90
2022-12-15T03:20:41.864Z,-6.85
2022-12-15T03:23:08.180Z,-6.86
2022-12-15T03:25:34.473Z,-6.87
2022-12-15T03:28:00.821Z,-6.93
2022-12-15T03:30:27.099Z,-6.97
2022-12-15T03:32:53.342Z,-7.00
2022-12-15T03:35:19.603Z,-7.01
2022-12-15T03:37:45.842Z,-7.06
2022-12-15T03:40:16.204Z,-7.10
2022-12-15T03:42:50.009Z,-7.15
2022-12-15T03:45:18.092Z,-7.21
2022-12-15T03:47:45.054Z,-7.26
2022-12-15T03:50:12.264Z,-7.27
2022-12-15T03:52:38.584Z,-7.29
2022-12-15T03:55:05.304Z,-7.30
2022-12-15T03:57:31.620Z,-7.28
2022-12-15T03:59:57.861Z,-7.28
2022-12-15T04:02:24.301Z,-7.28
2022-12-15T04:04:50.827Z,-7.27
2022-12-15T04:07:17.078Z,-7.32
2022-12-15T04:09:43.333Z,-7.34
2022-12-15T04:12:12.637Z,-7.35
2022-12-15T04:14:42.450Z,-7.35
2022-12-15T04:17:11.268Z,-7.37
2022-12-15T04:19:56.183Z,-7.44
2022-12-15T04:22:22.592Z,-7.51
2022-12-15T04:25:07.676Z,-7.52
2022-12-15T04:27:55.845Z,-7.55
2022-12-15T04:30:43.430Z,-7.49
2022-12-15T04:33:30.915Z,-7.47
2022-12-15T04:36:16.163Z,-7.46
2022-12-15T04:39:00.905Z,-7.45
2022-12-15T04:41:45.717Z,-7.44
2022-12-15T04:44:30.498Z,-7.42
2022-12-15T04:47:15.277Z,-7.43
2022-12-15T04:50:00.046Z,-7.44
2022-12-15T04:52:46.398Z,-7.45
2022-12-15T04:55:31.417Z,-7.46
2022-12-15T04:58:16.067Z,-7.46
2022-12-15T05:01:00.948Z,-7.45
2022-12-15T05:03:45.681Z,-7.44
2022-12-15T05:06:30.545Z,-7.45
2022-12-15T05:09:15.357Z,-7.46
2022-12-15T05:12:00.183Z,-7.47
2022-12-15T05:14:44.930Z,-7.48
2022-12-15T05:17:36.984Z,-7.50
2022-12-15T05:20:26.349Z,-7.48
2022-12-15T05:23:12.203Z,-7.53
2022-12-15T05:25:57.492Z,-7.57
2022-12-15T05:28:42.388Z,-7.55
2022-12-15T05:31:27.879Z,-7.55
2022-12-15T05:33:58.307Z,-7.52
2022-12-15T05:36:29.049Z,-7.55
2022-12-15T05:38:55.368Z,-7.53
2022-12-15T05:41:22.045Z,-7.54
2022-12-15T05:43:48.303Z,-7.55
2022-12-15T05:46:14.850Z,-7.57
2022-12-15T05:48:41.221Z,-7.60
2022-12-15T05:51:08.867Z,-7.57
2022-12-15T05:53:36.190Z,-7.59
2022-12-15T05:56:03.108Z,-7.62
2022-12-15T05:58:29.382Z,-7.64
2022-12-15T06:01:02.100Z,-7.64
2022-12-15T06:03:28.562Z,-7.70
2022-12-15T06:05:56.785Z,-7.72
2022-12-15T06:08:23.932Z,-7.73
2022-12-15T06:10:54.468Z,-7.77
2022-12-15T06:13:21.361Z,-7.78
2022-12-15T06:16:07.976Z,-7.77
2022-12-15T06:18:35.778Z,-7.76
2022-12-15T06:21:06.604Z,-7.77
2022-12-15T06:23:33.695Z,-7.80
2022-12-15T06:26:07.530Z,-7.83
2022-12-15T06:28:33.780Z,-7.86
2022-12-15T06:31:01.670Z,-7.89
2022-12-15T06:33:29.170Z,-7.94
2022-12-15T06:35:55.910Z,-7.99
2022-12-15T06:38:22.370Z,-8.05
2022-12-15T06:40:55.224Z,-8.12
2022-12-15T06:43:21.467Z,-8.14
2022-12-15T06:45:48.322Z,-8.15
2022-12-15T06:48:16.279Z,-8.20
2022-12-15T06:50:42.544Z,-8.23
2022-12-15T06:53:08.875Z,-8.29
2022-12-15T06:55:35.159Z,-8.30
2022-12-15T06:58:01.429Z,-8.29
2022-12-15T07:00:27.959Z,-8.30
2022-12-15T07:02:54.321Z,-8.29
2022-12-15T07:05:21.573Z,-8.32
2022-12-15T07:07:48.088Z,-8.32
2022-12-15T07:10:14.420Z,-8.36
2022-12-15T07:12:40.707Z,-8.39
2022-12-15T07:15:08.050Z,-8.41
2022-12-15T07:17:35.560Z,-8.38
2022-12-15T07:20:01.908Z,-8.34
2022-12-15T07:22:28.752Z,-8.28
2022-12-15T07:24:55.066Z,-8.12
2022-12-15T07:27:21.305Z,-8.02
2022-12-15T07:29:47.565Z,-7.96
2022-12-15T07:32:13.854Z,-7.81
2022-12-15T07:34:40.157Z,-7.72
2022-12-15T07:37:06.485Z,-7.63
2022-12-15T07:39:32.746Z,-7.55
2022-12-15T07:41:59.074Z,-7.48
2022-12-15T07:44:25.329Z,-7.35
2022-12-15T07:46:52.338Z,-7.28
2022-12-15T07:49:18.693Z,-7.27
2022-12-15T07:51:44.994Z,-7.24
2022-12-15T07:54:11.422Z,-7.21
2022-12-15T07:56:39.422Z,-7.15
2022-12-15T07:59:06.511Z,-7.12
2022-12-15T08:01:33.407Z,-7.06
2022-12-15T08:03:59.853Z,-6.96
2022-12-15T08:06:26.515Z,-6.91
2022-12-15T08:08:52.969Z,-6.84
2022-12-15T08:11:20.795Z,-6.73
2022-12-15T08:14:04.434Z,-6.65
2022-12-15T08:16:32.059Z,-6.57
2022-12-15T08:18:58.381Z,-6.50
2022-12-15T08:21:24.680Z,-6.40
2022-12-15T08:23:51.025Z,-6.31
2022-12-15T08:26:18.221Z,-6.26
2022-12-15T08:28:44.897Z,-6.22
2022-12-15T08:31:16.610Z,-6.16
2022-12-15T08:33:42.990Z,-6.06
2022-12-15T08:36:10.436Z,-5.96
2022-12-15T08:38:38.575Z,-5.86
2022-12-15T08:41:08.352Z,-5.72
2022-12-15T08:43:34.836Z,-5.61
2022-12-15T08:46:01.282Z,-5.51
2022-12-15T08:48:27.603Z,-5.43
2022-12-15T08:50:55.366Z,-5.32
2022-12-15T08:53:31.140Z,-5.26
2022-12-15T08:56:05.970Z,-5.23
2022-12-15T08:58:32.354Z,-5.13
2022-12-15T09:01:02.204Z,-5.03
2022-12-15T09:03:28.840Z,-4.90
2022-12-15T09:05:57.431Z,-4.81
2022-12-15T09:08:24.283Z,-4.79
2022-12-15T09:10:52.594Z,-4.79
2022-12-15T09:13:19.156Z,-4.76
2022-12-15T09:16:08.967Z,-4.72
2022-12-15T09:18:32.187Z,-4.63
2022-12-15T09:21:06.083Z,-4.54
2022-12-15T09:23:32.786Z,-4.53
2022-12-15T09:26:02.841Z,-4.48
2022-12-15T09:28:29.473Z,-4.44
2022-12-15T09:31:06.017Z,-4.42
2022-12-15T09:33:33.892Z,-4.44
2022-12-15T09:36:00.455Z,-4.48
2022-12-15T09:38:26.782Z,-4.52
2022-12-15T09:40:53.164Z,-4.58
2022-12-15T09:43:34.508Z,-4.47
2022-12-15T09:46:06.507Z,-4.45
2022-12-15T09:48:41.671Z,-4.44
2022-12-15T09:51:10.558Z,-4.38
2022-12-15T09:56:32.510Z,-4.30
2022-12-15T09:59:05.488Z,-4.22
2022-12-15T10:01:38.631Z,-4.23
2022-12-15T10:04:05.049Z,-4.18
2022-12-15T10:06:41.124Z,-4.15
2022-12-15T10:09:18.236Z,-4.13
2022-12-15T10:11:55.211Z,-4.07
2022-12-15T10:14:30.724Z,-4.00
2022-12-15T10:17:17.396Z,-3.96
2022-12-15T10:19:55.319Z,-3.87
2022-12-15T10:22:26.908Z,-3.84
2022-12-15T10:25:11.129Z,-3.76
2022-12-15T10:27:56.686Z,-3.70
2022-12-15T10:30:23.221Z,-3.66
2022-12-15T10:32:50.942Z,-3.66
2022-12-15T10:35:30.458Z,-3.57
2022-12-15T10:38:07.009Z,-3.52
2022-12-15T10:40:42.513Z,-3.47
2022-12-15T10:43:13.386Z,-3.49
2022-12-15T10:45:39.997Z,-3.44
2022-12-15T10:48:06.905Z,-3.36
2022-12-15T10:50:34.362Z,-3.32
2022-12-15T10:53:06.414Z,-3.23
2022-12-15T10:55:37.185Z,-3.13
2022-12-15T10:58:04.970Z,-3.13
2022-12-15T11:00:32.502Z,-3.06
2022-12-15T11:02:59.378Z,-3.11
2022-12-15T11:05:26.472Z,-3.11
2022-12-15T11:07:54.261Z,-3.18
2022-12-15T11:10:23.305Z,-3.11
2022-12-15T11:13:08.627Z,-3.14
2022-12-15T11:15:38.266Z,-3.14
2022-12-15T11:18:15.680Z,-3.06
2022-12-15T11:20:44.661Z,-2.93
2022-12-15T11:23:23.839Z,-2.90
2022-12-15T11:26:20.224Z,-2.88
2022-12-15T11:28:50.938Z,-2.89
2022-12-15T11:31:34.344Z,-2.85
2022-12-15T11:34:00.765Z,-2.86
2022-12-15T11:36:27.016Z,-2.93
2022-12-15T11:38:58.896Z,-2.85
2022-12-15T11:42:03.460Z,-2.86
2022-12-15T11:44:52.754Z,-2.80
2022-12-15T11:47:44.829Z,-2.70
2022-12-15T11:50:16.872Z,-2.67
2022-12-15T11:53:02.060Z,-2.67
2022-12-15T11:55:41.047Z,-2.71
2022-12-15T11:58:13.693Z,-2.76
2022-12-15T12:00:43.295Z,-2.62
2022-12-15T12:03:20.010Z,-2.52
2022-12-15T12:06:15.595Z,-2.50
2022-12-15T12:08:41.866Z,-2.42
2022-12-15T12:11:40.776Z,-2.54
2022-12-15T12:14:20.709Z,-2.56
2022-12-15T12:16:46.930Z,-2.65
2022-12-15T12:19:21.340Z,-2.70
2022-12-15T12:21:53.850Z,-2.68
2022-12-15T12:24:21.242Z,-2.65
2022-12-15T12:26:50.697Z,-2.65
2022-12-15T12:29:21.031Z,-2.60
2022-12-15T12:31:51.562Z,-2.57
2022-12-15T12:34:38.088Z,-2.59
2022-12-15T12:37:13.777Z,-2.55
2022-12-15T12:39:40.360Z,-2.52
2022-12-15T12:42:12.682Z,-2.55
2022-12-15T12:44:39.061Z,-2.56
2022-12-15T12:47:11.694Z,-2.59
2022-12-15T12:49:41.568Z,-2.63
2022-12-15T12:52:16.859Z,-2.66
2022-12-15T12:54:48.902Z,-2.64
2022-12-15T12:57:31.654Z,-2.63
2022-12-15T13:00:02.417Z,-2.61
2022-12-15T13:02:29.402Z,-2.57
2022-12-15T13:04:59.939Z,-2.55
2022-12-15T13:07:37.648Z,-2.53
2022-12-15T13:10:03.886Z,-2.55
2022-12-15T13:15:28.796Z,-2.55
2022-12-15T13:17:59.314Z,-2.53
2022-12-15T13:20:30.811Z,-2.51
2022-12-15T13:23:18.795Z,-2.51
2022-12-15T13:25:53.716Z,-2.53
2022-12-15T13:28:40.049Z,-2.53
2022-12-15T13:31:19.113Z,-2.50
2022-12-15T13:33:52.194Z,-2.46
2022-12-15T13:36:36.845Z,-2.44
2022-12-15T13:39:03.092Z,-2.40
2022-12-15T13:41:29.371Z,-2.38
2022-12-15T13:43:57.673Z,-2.36
2022-12-15T13:46:28.286Z,-2.36
2022-12-15T13:49:14.842Z,-2.33
2022-12-15T13:51:45.781Z,-2.30
2022-12-15T13:54:23.209Z,-2.36
2022-12-15T13:56:52.674Z,-2.38
2022-12-15T13:59:40.383Z,-2.39
2022-12-15T14:02:26.389Z,-2.43
2022-12-15T14:05:11.555Z,-2.43
2022-12-15T14:07:39.070Z,-2.47
2022-12-15T14:10:07.538Z,-2.46
2022-12-15T14:12:33.895Z,-2.48
2022-12-15T14:15:00.364Z,-2.46
2022-12-15T14:17:28.169Z,-2.47
2022-12-15T14:19:54.419Z,-2.51
2022-12-15T14:22:28.147Z,-2.52
2022-12-15T14:24:59.860Z,-2.54
2022-12-15T14:27:27.854Z,-2.55
2022-12-15T14:30:13.673Z,-2.56
2022-12-15T14:32:41.001Z,-2.56
2022-12-15T14:35:13.176Z,-2.59
2022-12-15T14:37:39.652Z,-2.59
2022-12-15T14:40:06.558Z,-2.62
2022-12-15T14:42:33.000Z,-2.64
2022-12-15T14:44:59.330Z,-2.67
2022-12-15T14:47:28.666Z,-2.69
2022-12-15T14:49:56.898Z,-2.68
2022-12-15T14:52:32.717Z,-2.66
2022-12-15T14:55:03.155Z,-2.68
2022-12-15T14:57:49.690Z,-2.68
2022-12-15T15:00:23.059Z,-2.69
2022-12-15T15:02:49.522Z,-2.68
2022-12-15T15:05:27.654Z,-2.67
2022-12-15T15:07:55.894Z,-2.66
2022-12-15T15:10:24.303Z,-2.66
2022-12-15T15:12:52.595Z,-2.65
2022-12-15T15:15:20.615Z,-2.65
2022-12-15T15:17:49.864Z,-2.66
2022-12-15T15:20:16.165Z,-2.65
2022-12-15T15:22:43.525Z,-2.65
2022-12-15T15:25:25.382Z,-2.65
2022-12-15T15:27:51.715Z,-2.64
2022-12-15T15:30:22.031Z,-2.63
2022-12-15T15:32:56.227Z,-2.61
2022-12-15T15:35:24.211Z,-2.62
2022-12-15T15:37:51.534Z,-2.61
2022-12-15T15:40:18.215Z,-2.59
2022-12-15T15:42:45.390Z,-2.57
2022-12-15T15:45:13.661Z,-2.55
2022-12-15T15:47:41.139Z,-2.55
2022-12-15T15:50:11.558Z,-2.54
2022-12-15T15:52:37.818Z,-2.54
2022-12-15T15:55:04.336Z,-2.53
2022-12-15T15:57:30.583Z,-2.53
2022-12-15T15:59:57.050Z,-2.51
2022-12-15T16:02:23.527Z,-2.50
2022-12-15T16:04:50.633Z,-2.51
2022-12-15T16:07:22.602Z,-2.51
2022-12-15T16:09:49.044Z,-2.50
2022-12-15T16:12:42.388Z,-2.49
2022-12-15T16:15:19.912Z,-2.50
2022-12-15T16:17:46.963Z,-2.48
2022-12-15T16:20:14.153Z,-2.46
2022-12-15T16:22:41.909Z,-2.41
2022-12-15T16:25:42.533Z,-2.41
2022-12-15T16:28:17.650Z,-2.41
2022-12-15T16:30:44.382Z,-2.42
2022-12-15T16:33:12.225Z,-2.43
2022-12-15T16:35:39.820Z,-2.41
2022-12-15T16:38:06.480Z,-2.42
2022-12-15T16:40:36.853Z,-2.43
2022-12-15T16:43:04.141Z,-2.41
2022-12-15T16:45:31.168Z,-2.40
2022-12-15T16:47:58.149Z,-2.39
2022-12-15T16:50:30.529Z,-2.40
2022-12-15T16:52:57.037Z,-2.39
2022-12-15T16:55:27.547Z,-2.36
2022-12-15T16:58:03.797Z,-2.37
2022-12-15T17:00:32.319Z,-2.35
2022-12-15T17:02:58.851Z,-2.37
2022-12-15T17:05:26.548Z,-2.37
2022-12-15T17:07:55.147Z,-2.37
2022-12-15T17:10:23.003Z,-2.36
2022-12-15T17:12:49.563Z,-2.37
2022-12-15T17:15:26.338Z,-2.39
2022-12-15T17:17:53.441Z,-2.38
2022-12-15T17:20:30.979Z,-2.37
2022-12-15T17:23:02.391Z,-2.37
2022-12-15T17:26:19.586Z,-2.36
2022-12-15T17:28:28.792Z,-2.36
2022-12-15T17:30:55.072Z,-2.36
2022-12-15T17:33:25.568Z,-2.34
2022-12-15T17:35:53.325Z,-2.35
2022-12-15T17:38:20.470Z,-2.35
2022-12-15T17:40:47.760Z,-2.33
2022-12-15T17:43:15.531Z,-2.33
2022-12-15T17:45:42.072Z,-2.32
2022-12-15T17:48:08.387Z,-2.33
2022-12-15T17:50:35.216Z,-2.33
2022-12-15T17:53:02.823Z,-2.31
2022-12-15T17:55:34.874Z,-2.32
2022-12-15T17:58:02.630Z,-2.33
2022-12-15T18:00:30.214Z,-2.35
2022-12-15T18:02:57.797Z,-2.33
2022-12-15T18:05:28.082Z,-2.32
2022-12-15T18:08:02.213Z,-2.34
2022-12-15T18:10:33.239Z,-2.35
2022-12-15T18:12:59.943Z,-2.36
2022-12-15T18:15:28.699Z,-2.39
2022-12-15T18:17:55.049Z,-2.44
2022-12-15T18:20:21.427Z,-2.45
2022-12-15T18:22:48.664Z,-2.48
2022-12-15T18:25:35.180Z,-2.46
2022-12-15T18:28:01.456Z,-2.45
2022-12-15T18:30:27.754Z,-2.47
2022-12-15T18:32:56.213Z,-2.49
2022-12-15T18:35:36.600Z,-2.48
2022-12-15T18:38:11.660Z,-2.48
2022-12-15T18:40:37.926Z,-2.47
2022-12-15T18:43:05.526Z,-2.46
2022-12-15T18:45:31.789Z,-2.45
2022-12-15T18:47:58.035Z,-2.45
2022-12-15T18:50:25.226Z,-2.45
2022-12-15T18:53:01.072Z,-2.49
2022-12-15T18:55:29.730Z,-2.50
2022-12-15T18:57:56.200Z,-2.49
2022-12-15T19:00:27.614Z,-2.49
2022-12-15T19:02:55.279Z,-2.47
2022-12-15T19:05:28.650Z,-2.45
2022-12-15T19:08:00.231Z,-2.41
2022-12-15T19:10:30.967Z,-2.42
2022-12-15T19:12:58.837Z,-2.44
2022-12-15T19:15:25.663Z,-2.45
2022-12-15T19:18:10.714Z,-2.45
2022-12-15T19:20:55.576Z,-2.44
2022-12-15T19:23:22.089Z,-2.43
2022-12-15T19:25:49.119Z,-2.42
2022-12-15T19:28:16.858Z,-2.41
2022-12-15T19:30:43.574Z,-2.41
2022-12-15T19:33:13.379Z,-2.40
2022-12-15T19:35:41.056Z,-2.40
2022-12-15T19:38:07.744Z,-2.40
2022-12-15T19:40:35.076Z,-2.43
2022-12-15T19:43:02.127Z,-2.44
2022-12-15T19:45:29.751Z,-2.43
2022-12-15T19:47:56.080Z,-2.42
2022-12-15T19:50:29.793Z,-2.43
2022-12-15T19:53:00.736Z,-2.43
2022-12-15T19:55:29.459Z,-2.43
2022-12-15T19:57:55.743Z,-2.41
2022-12-15T20:00:22.256Z,-2.40
2022-12-15T20:02:49.251Z,-2.40
2022-12-15T20:05:15.599Z,-2.41
2022-12-15T20:07:42.281Z,-2.42
2022-12-15T20:10:24.421Z,-2.39
2022-12-15T20:12:53.003Z,-2.39
2022-12-15T20:15:21.504Z,-2.36
2022-12-15T20:17:48.454Z,-2.32
2022-12-15T20:20:15.984Z,-2.30
2022-12-15T20:22:43.484Z,-2.29
2022-12-15T20:25:15.249Z,-2.29
2022-12-15T20:27:41.492Z,-2.29
2022-12-15T20:30:14.115Z,-2.29
2022-12-15T20:32:40.361Z,-2.30
2022-12-15T20:35:06.656Z,-2.29
2022-12-15T20:37:32.897Z,-2.31
2022-12-15T20:39:59.139Z,-2.31
2022-12-15T20:42:25.442Z,-2.31
2022-12-15T20:44:51.691Z,-2.32
2022-12-15T20:47:22.453Z,-2.32
2022-12-15T20:49:50.044Z,-2.32
2022-12-15T20:52:20.728Z,-2.32
2022-12-15T20:54:46.983Z,-2.32
2022-12-15T20:57:13.241Z,-2.32
2022-12-15T20:59:39.515Z,-2.32
2022-12-15T21:02:25.481Z,-2.33
2022-12-15T21:04:52.223Z,-2.36
2022-12-15T21:07:18.773Z,-2.37
2022-12-15T21:09:45.159Z,-2.39
2022-12-15T21:12:31.698Z,-2.41
2022-12-15T21:14:58.323Z,-2.40
2022-12-15T21:17:28.164Z,-2.39
2022-12-15T21:19:54.834Z,-2.39
2022-12-15T21:22:24.536Z,-2.40
2022-12-15T21:24:52.845Z,-2.38
2022-12-15T21:27:19.818Z,-2.39
2022-12-15T21:29:52.281Z,-2.39
2022-12-15T21:32:19.221Z,-2.38
2022-12-15T21:34:45.476Z,-2.35
2022-12-15T21:37:26.728Z,-2.33
2022-12-15T21:39:53.188Z,-2.33
2022-12-15T21:42:21.220Z,-2.32
2022-12-15T21:44:48.022Z,-2.33
2022-12-15T21:47:14.679Z,-2.33
2022-12-15T21:49:40.966Z,-2.31
2022-12-15T21:52:08.835Z,-2.31
2022-12-15T21:54:36.270Z,-2.30
2022-12-15T21:57:02.824Z,-2.28
2022-12-15T21:59:30.586Z,-2.30
2022-12-15T22:01:57.127Z,-2.28
2022-12-15T22:04:29.154Z,-2.28
2022-12-15T22:06:55.713Z,-2.27
2022-12-15T22:09:21.964Z,-2.29
2022-12-15T22:11:49.810Z,-2.27
2022-12-15T22:14:23.783Z,-2.28
2022-12-15T22:16:50.019Z,-2.28
2022-12-15T22:19:16.284Z,-2.27
2022-12-15T22:21:42.624Z,-2.26
2022-12-15T22:24:09.615Z,-2.25
2022-12-15T22:26:36.804Z,-2.24
2022-12-15T22:29:09.371Z,-2.22
2022-12-15T22:31:35.678Z,-2.24
2022-12-15T22:34:02.440Z,-2.26
2022-12-15T22:36:28.668Z,-2.25
2022-12-15T22:38:54.931Z,-2.24
2022-12-15T22:41:22.140Z,-2.24
2022-12-15T22:43:50.306Z,-2.24
2022-12-15T22:46:16.748Z,-2.24
2022-12-15T22:48:44.699Z,-2.24
2022-12-15T22:51:12.478Z,-2.23
2022-12-15T22:53:38.873Z,-2.23
2022-12-15T22:56:10.164Z,-2.25
2022-12-15T22:58:42.634Z,-2.26
2022-12-15T23:01:09.937Z,-2.25
2022-12-15T23:03:36.438Z,-2.27
2022-12-15T23:06:03.120Z,-2.28
2022-12-15T23:08:29.994Z,-2.27
2022-12-15T23:11:15.045Z,-2.24
2022-12-15T23:13:41.289Z,-2.23
2022-12-15T23:16:20.374Z,-2.22
2022-12-15T23:18:53.799Z,-2.22
2022-12-15T23:21:21.510Z,-2.22
2022-12-15T23:23:48.204Z,-2.22
2022-12-15T23:26:15.740Z,-2.24
2022-12-15T23:28:43.273Z,-2.27
2022-12-15T23:31:09.833Z,-2.29
2022-12-15T23:33:36.509Z,-2.28
2022-12-15T23:36:02.808Z,-2.30
2022-12-15T23:38:29.341Z,-2.27
2022-12-15T23:40:56.253Z,-2.24
2022-12-15T23:43:23.561Z,-2.22
2022-12-15T23:46:00.300Z,-2.21
2022-12-15T23:48:30.743Z,-2.19
2022-12-15T23:51:02.216Z,-2.18
2022-12-15T23:53:28.664Z,-2.17
2022-12-15T23:55:55.143Z,-2.16
2022-12-15T23:58:21.997Z,-2.17
